sensor_id;sensor_type;location;lat;lon;timestamp;pressure;altitude;pressure_sealevel;temperature;humidity
58295;BME280;45705;55.592;37.460;2022-11-15T00:02:30;99775.06;;;0.24;52.77
58295;BME280;45705;55.592;37.460;2022-11-15T00:05:15;99771.94;;;0.09;53.38
58295;BME280;45705;55.592;37.460;2022-11-15T00:07:59;99779.16;;;-0.10;54.29
58295;BME280;45705;55.592;37.460;2022-11-15T00:10:57;99772.09;;;-0.05;54.58
58295;BME280;45705;55.592;37.460;2022-11-15T00:13:41;99770.88;;;0.28;53.79
58295;BME280;45705;55.592;37.460;2022-11-15T00:16:25;99751.72;;;0.13;53.42
58295;BME280;45705;55.592;37.460;2022-11-15T00:19:09;99767.50;;;0.03;53.81
58295;BME280;45705;55.592;37.460;2022-11-15T00:21:53;99764.78;;;0.21;53.56
58295;BME280;45705;55.592;37.460;2022-11-15T00:24:38;99765.84;;;0.02;53.78
58295;BME280;45705;55.592;37.460;2022-11-15T00:27:22;99760.66;;;0.07;53.40
58295;BME280;45705;55.592;37.460;2022-11-15T00:30:07;99766.88;;;0.19;53.18
58295;BME280;45705;55.592;37.460;2022-11-15T00:32:51;99759.16;;;0.11;53.48
58295;BME280;45705;55.592;37.460;2022-11-15T00:35:36;99759.47;;;0.03;53.40
58295;BME280;45705;55.592;37.460;2022-11-15T00:38:20;99747.44;;;-0.07;53.21
58295;BME280;45705;55.592;37.460;2022-11-15T00:41:05;99750.13;;;-0.25;54.12
58295;BME280;45705;55.592;37.460;2022-11-15T00:43:50;99726.00;;;-0.18;54.04
58295;BME280;45705;55.592;37.460;2022-11-15T00:46:34;99741.06;;;-0.24;54.62
58295;BME280;45705;55.592;37.460;2022-11-15T00:49:18;99735.13;;;-0.26;54.80
58295;BME280;45705;55.592;37.460;2022-11-15T00:52:03;99734.38;;;-0.15;54.10
58295;BME280;45705;55.592;37.460;2022-11-15T00:54:47;99744.34;;;-0.22;53.87
58295;BME280;45705;55.592;37.460;2022-11-15T00:57:31;99732.22;;;-0.06;53.47
58295;BME280;45705;55.592;37.460;2022-11-15T01:00:16;99733.41;;;-0.39;54.23
58295;BME280;45705;55.592;37.460;2022-11-15T01:03:01;99735.13;;;-0.08;53.42
58295;BME280;45705;55.592;37.460;2022-11-15T01:05:45;99730.81;;;-0.27;54.40
58295;BME280;45705;55.592;37.460;2022-11-15T01:08:29;99729.34;;;-0.42;54.47
58295;BME280;45705;55.592;37.460;2022-11-15T01:11:14;99722.19;;;-0.29;54.62
58295;BME280;45705;55.592;37.460;2022-11-15T01:13:58;99722.19;;;-0.29;55.07
58295;BME280;45705;55.592;37.460;2022-11-15T01:16:42;99716.28;;;-0.31;54.22
58295;BME280;45705;55.592;37.460;2022-11-15T01:19:26;99733.78;;;-0.35;54.67
58295;BME280;45705;55.592;37.460;2022-11-15T01:22:11;99718.94;;;-0.31;54.65
58295;BME280;45705;55.592;37.460;2022-11-15T01:24:55;99714.19;;;-0.29;54.59
58295;BME280;45705;55.592;37.460;2022-11-15T01:27:39;99711.50;;;-0.29;55.07
58295;BME280;45705;55.592;37.460;2022-11-15T01:30:23;99711.22;;;-0.40;55.61
58295;BME280;45705;55.592;37.460;2022-11-15T01:33:08;99702.63;;;-0.42;55.63
58295;BME280;45705;55.592;37.460;2022-11-15T01:35:52;99705.00;;;-0.33;55.93
58295;BME280;45705;55.592;37.460;2022-11-15T01:38:36;99680.94;;;-0.15;55.49
58295;BME280;45705;55.592;37.460;2022-11-15T01:41:26;99685.25;;;-0.32;57.01
58295;BME280;45705;55.592;37.460;2022-11-15T01:44:49;99696.38;;;-0.35;57.37
58295;BME280;45705;55.592;37.460;2022-11-15T01:47:41;99700.78;;;-0.23;57.46
58295;BME280;45705;55.592;37.460;2022-11-15T01:50:30;99688.97;;;-0.33;57.84
58295;BME280;45705;55.592;37.460;2022-11-15T01:53:16;99678.69;;;-0.18;57.61
58295;BME280;45705;55.592;37.460;2022-11-15T01:56:04;99702.47;;;-0.28;58.22
58295;BME280;45705;55.592;37.460;2022-11-15T01:58:50;99709.63;;;-0.41;58.92
58295;BME280;45705;55.592;37.460;2022-11-15T02:01:36;99707.97;;;-0.42;59.37
58295;BME280;45705;55.592;37.460;2022-11-15T02:04:25;99702.47;;;-0.28;59.04
58295;BME280;45705;55.592;37.460;2022-11-15T02:07:12;99702.53;;;-0.16;57.91
58295;BME280;45705;55.592;37.460;2022-11-15T02:10:06;99701.88;;;-0.49;58.96
58295;BME280;45705;55.592;37.460;2022-11-15T02:12:50;99703.28;;;-0.28;58.90
58295;BME280;45705;55.592;37.460;2022-11-15T02:15:41;99694.31;;;-0.33;59.23
58295;BME280;45705;55.592;37.460;2022-11-15T02:18:37;99697.13;;;-0.28;59.27
58295;BME280;45705;55.592;37.460;2022-11-15T02:28:12;99685.31;;;-0.39;58.89
58295;BME280;45705;55.592;37.460;2022-11-15T02:34:22;99673.03;;;-0.40;58.80
58295;BME280;45705;55.592;37.460;2022-11-15T02:37:16;99674.41;;;-0.37;58.46
58295;BME280;45705;55.592;37.460;2022-11-15T02:43:13;99674.19;;;-0.36;58.92
58295;BME280;45705;55.592;37.460;2022-11-15T02:49:48;99671.59;;;-0.61;59.49
58295;BME280;45705;55.592;37.460;2022-11-15T02:52:34;99676.78;;;-0.85;59.79
58295;BME280;45705;55.592;37.460;2022-11-15T02:55:29;99677.22;;;-0.88;59.67
58295;BME280;45705;55.592;37.460;2022-11-15T03:01:24;99664.25;;;-0.84;60.12
58295;BME280;45705;55.592;37.460;2022-11-15T03:07:23;99669.00;;;-0.86;60.23
58295;BME280;45705;55.592;37.460;2022-11-15T03:10:19;99656.78;;;-0.75;60.42
58295;BME280;45705;55.592;37.460;2022-11-15T03:13:21;99660.63;;;-0.71;60.22
58295;BME280;45705;55.592;37.460;2022-11-15T03:22:11;99659.75;;;-1.09;61.33
58295;BME280;45705;55.592;37.460;2022-11-15T03:24:58;99658.97;;;-0.72;60.68
58295;BME280;45705;55.592;37.460;2022-11-15T03:27:49;99646.53;;;-0.60;61.07
58295;BME280;45705;55.592;37.460;2022-11-15T03:30:36;99649.16;;;-0.97;61.00
58295;BME280;45705;55.592;37.460;2022-11-15T03:33:21;99646.75;;;-1.24;62.44
58295;BME280;45705;55.592;37.460;2022-11-15T03:36:06;99642.41;;;-1.00;61.99
58295;BME280;45705;55.592;37.460;2022-11-15T03:38:54;99650.59;;;-0.76;60.59
58295;BME280;45705;55.592;37.460;2022-11-15T03:41:48;99653.44;;;-0.71;60.68
58295;BME280;45705;55.592;37.460;2022-11-15T03:45:30;99643.09;;;-0.86;60.30
58295;BME280;45705;55.592;37.460;2022-11-15T03:48:09;99645.47;;;-0.96;60.66
58295;BME280;45705;55.592;37.460;2022-11-15T03:50:55;99658.69;;;-0.83;61.22
58295;BME280;45705;55.592;37.460;2022-11-15T03:53:40;99646.38;;;-0.84;61.00
58295;BME280;45705;55.592;37.460;2022-11-15T03:56:25;99643.44;;;-0.75;61.02
58295;BME280;45705;55.592;37.460;2022-11-15T03:59:09;99632.19;;;-1.03;60.89
58295;BME280;45705;55.592;37.460;2022-11-15T04:02:12;99633.47;;;-0.68;60.28
58295;BME280;45705;55.592;37.460;2022-11-15T04:04:57;99639.09;;;-0.76;60.67
58295;BME280;45705;55.592;37.460;2022-11-15T04:07:41;99622.63;;;-0.92;60.68
58295;BME280;45705;55.592;37.460;2022-11-15T04:10:25;99635.03;;;-0.79;61.12
58295;BME280;45705;55.592;37.460;2022-11-15T04:13:09;99640.72;;;-0.94;61.68
58295;BME280;45705;55.592;37.460;2022-11-15T04:15:53;99638.84;;;-1.12;62.41
58295;BME280;45705;55.592;37.460;2022-11-15T04:18:38;99641.34;;;-0.73;59.61
58295;BME280;45705;55.592;37.460;2022-11-15T04:21:22;99630.19;;;-0.70;59.36
58295;BME280;45705;55.592;37.460;2022-11-15T04:24:25;99637.34;;;-0.83;58.75
58295;BME280;45705;55.592;37.460;2022-11-15T04:27:10;99633.59;;;-0.82;58.71
58295;BME280;45705;55.592;37.460;2022-11-15T04:29:57;99631.81;;;-1.06;59.50
58295;BME280;45705;55.592;37.460;2022-11-15T04:32:41;99626.22;;;-1.23;59.68
58295;BME280;45705;55.592;37.460;2022-11-15T04:35:25;99627.28;;;-1.06;59.70
58295;BME280;45705;55.592;37.460;2022-11-15T04:38:10;99625.53;;;-1.37;59.70
58295;BME280;45705;55.592;37.460;2022-11-15T04:40:54;99608.25;;;-1.34;59.72
58295;BME280;45705;55.592;37.460;2022-11-15T04:43:38;99625.03;;;-1.27;60.52
58295;BME280;45705;55.592;37.460;2022-11-15T04:46:23;99614.03;;;-0.94;58.82
58295;BME280;45705;55.592;37.460;2022-11-15T04:49:08;99610.06;;;-1.28;59.61
58295;BME280;45705;55.592;37.460;2022-11-15T04:51:52;99611.19;;;-0.99;58.98
58295;BME280;45705;55.592;37.460;2022-11-15T04:54:37;99609.50;;;-0.93;58.70
58295;BME280;45705;55.592;37.460;2022-11-15T04:57:21;99603.31;;;-0.87;58.99
58295;BME280;45705;55.592;37.460;2022-11-15T05:00:08;99586.53;;;-0.94;60.03
58295;BME280;45705;55.592;37.460;2022-11-15T05:02:53;99605.13;;;-1.06;59.96
58295;BME280;45705;55.592;37.460;2022-11-15T05:05:58;99607.34;;;-1.03;60.15
58295;BME280;45705;55.592;37.460;2022-11-15T05:08:42;99603.44;;;-1.01;60.37
58295;BME280;45705;55.592;37.460;2022-11-15T05:11:27;99598.03;;;-0.94;60.30
58295;BME280;45705;55.592;37.460;2022-11-15T05:14:11;99600.91;;;-0.95;60.54
58295;BME280;45705;55.592;37.460;2022-11-15T05:16:55;99588.31;;;-0.70;60.04
58295;BME280;45705;55.592;37.460;2022-11-15T05:19:40;99595.13;;;-0.74;60.40
58295;BME280;45705;55.592;37.460;2022-11-15T05:22:24;99595.38;;;-0.75;60.24
58295;BME280;45705;55.592;37.460;2022-11-15T05:25:08;99595.50;;;-0.89;60.13
58295;BME280;45705;55.592;37.460;2022-11-15T05:27:53;99599.41;;;-0.91;59.81
58295;BME280;45705;55.592;37.460;2022-11-15T05:30:37;99597.56;;;-0.54;58.85
58295;BME280;45705;55.592;37.460;2022-11-15T05:33:21;99594.38;;;-0.63;58.60
58295;BME280;45705;55.592;37.460;2022-11-15T05:36:43;99584.81;;;-0.52;58.22
58295;BME280;45705;55.592;37.460;2022-11-15T05:39:28;99590.84;;;-0.75;59.14
58295;BME280;45705;55.592;37.460;2022-11-15T05:42:14;99581.81;;;-0.44;58.40
58295;BME280;45705;55.592;37.460;2022-11-15T05:44:59;99581.78;;;-0.74;58.49
58295;BME280;45705;55.592;37.460;2022-11-15T05:47:46;99576.03;;;-0.41;57.79
58295;BME280;45705;55.592;37.460;2022-11-15T05:50:31;99574.28;;;-0.65;58.78
58295;BME280;45705;55.592;37.460;2022-11-15T05:53:17;99567.06;;;-0.16;57.34
58295;BME280;45705;55.592;37.460;2022-11-15T05:56:04;99567.34;;;-0.36;57.96
58295;BME280;45705;55.592;37.460;2022-11-15T05:58:52;99571.56;;;-0.47;57.80
58295;BME280;45705;55.592;37.460;2022-11-15T06:01:38;99565.63;;;-0.30;57.61
58295;BME280;45705;55.592;37.460;2022-11-15T06:04:23;99561.44;;;-0.26;57.57
58295;BME280;45705;55.592;37.460;2022-11-15T06:07:07;99561.50;;;-0.03;56.46
58295;BME280;45705;55.592;37.460;2022-11-15T06:09:51;99562.66;;;-0.10;56.93
58295;BME280;45705;55.592;37.460;2022-11-15T06:12:35;99562.59;;;-0.34;57.12
58295;BME280;45705;55.592;37.460;2022-11-15T06:15:19;99558.09;;;-0.22;56.98
58295;BME280;45705;55.592;37.460;2022-11-15T06:18:04;99570.03;;;-0.54;58.23
58295;BME280;45705;55.592;37.460;2022-11-15T06:20:48;99559.44;;;-0.43;58.62
58295;BME280;45705;55.592;37.460;2022-11-15T06:23:34;99551.75;;;-0.09;57.68
58295;BME280;45705;55.592;37.460;2022-11-15T06:26:18;99553.47;;;-0.14;57.67
58295;BME280;45705;55.592;37.460;2022-11-15T06:29:03;99547.75;;;-0.18;57.78
58295;BME280;45705;55.592;37.460;2022-11-15T06:31:48;99547.94;;;-0.31;57.95
58295;BME280;45705;55.592;37.460;2022-11-15T06:34:32;99540.91;;;-0.14;57.79
58295;BME280;45705;55.592;37.460;2022-11-15T06:37:17;99541.75;;;-0.44;58.62
58295;BME280;45705;55.592;37.460;2022-11-15T06:40:01;99537.50;;;-0.33;58.83
58295;BME280;45705;55.592;37.460;2022-11-15T06:42:45;99534.47;;;-0.36;58.97
58295;BME280;45705;55.592;37.460;2022-11-15T06:45:29;99535.47;;;-0.19;58.53
58295;BME280;45705;55.592;37.460;2022-11-15T06:48:14;99532.19;;;-0.21;58.75
58295;BME280;45705;55.592;37.460;2022-11-15T06:50:59;99530.28;;;-0.63;59.40
58295;BME280;45705;55.592;37.460;2022-11-15T06:53:44;99524.28;;;-0.58;60.48
58295;BME280;45705;55.592;37.460;2022-11-15T06:56:28;99520.41;;;-0.32;59.43
58295;BME280;45705;55.592;37.460;2022-11-15T06:59:12;99526.63;;;-0.50;59.41
58295;BME280;45705;55.592;37.460;2022-11-15T07:01:56;99520.81;;;-0.16;58.67
58295;BME280;45705;55.592;37.460;2022-11-15T07:04:41;99516.59;;;-0.24;58.67
58295;BME280;45705;55.592;37.460;2022-11-15T07:07:25;99507.03;;;-0.02;58.11
58295;BME280;45705;55.592;37.460;2022-11-15T07:10:09;99509.66;;;-0.25;58.41
58295;BME280;45705;55.592;37.460;2022-11-15T07:12:55;99516.34;;;-0.65;60.21
58295;BME280;45705;55.592;37.460;2022-11-15T07:15:39;99497.84;;;-0.06;58.61
58295;BME280;45705;55.592;37.460;2022-11-15T07:18:24;99501.91;;;-0.03;58.44
58295;BME280;45705;55.592;37.460;2022-11-15T07:21:10;99504.25;;;0.29;57.03
58295;BME280;45705;55.592;37.460;2022-11-15T07:23:55;99509.22;;;0.02;57.82
58295;BME280;45705;55.592;37.460;2022-11-15T07:26:40;99497.94;;;-0.12;57.80
58295;BME280;45705;55.592;37.460;2022-11-15T07:29:24;99498.44;;;0.08;57.36
58295;BME280;45705;55.592;37.460;2022-11-15T07:32:09;99491.97;;;-0.26;58.35
58295;BME280;45705;55.592;37.460;2022-11-15T07:34:54;99494.25;;;0.01;58.32
58295;BME280;45705;55.592;37.460;2022-11-15T07:37:38;99495.28;;;-0.01;58.49
58295;BME280;45705;55.592;37.460;2022-11-15T07:40:23;99488.31;;;-0.02;58.11
58295;BME280;45705;55.592;37.460;2022-11-15T07:43:08;99487.97;;;0.07;57.69
58295;BME280;45705;55.592;37.460;2022-11-15T07:45:52;99485.75;;;0.04;57.85
58295;BME280;45705;55.592;37.460;2022-11-15T07:48:37;99481.72;;;-0.29;58.77
58295;BME280;45705;55.592;37.460;2022-11-15T07:51:23;99466.13;;;-0.56;60.37
58295;BME280;45705;55.592;37.460;2022-11-15T07:54:07;99461.31;;;-0.12;59.46
58295;BME280;45705;55.592;37.460;2022-11-15T07:56:51;99458.63;;;-0.24;59.43
58295;BME280;45705;55.592;37.460;2022-11-15T07:59:36;99471.78;;;-0.22;59.10
58295;BME280;45705;55.592;37.460;2022-11-15T08:02:20;99455.50;;;-0.32;59.50
58295;BME280;45705;55.592;37.460;2022-11-15T08:05:04;99468.50;;;-0.24;59.74
58295;BME280;45705;55.592;37.460;2022-11-15T08:07:49;99458.19;;;-0.21;59.91
58295;BME280;45705;55.592;37.460;2022-11-15T08:10:34;99454.94;;;0.01;58.81
58295;BME280;45705;55.592;37.460;2022-11-15T08:13:18;99446.56;;;0.33;58.11
58295;BME280;45705;55.592;37.460;2022-11-15T08:16:03;99438.56;;;0.45;57.98
58295;BME280;45705;55.592;37.460;2022-11-15T08:18:49;99442.41;;;0.49;57.27
58295;BME280;45705;55.592;37.460;2022-11-15T08:21:33;99445.56;;;0.86;56.20
58295;BME280;45705;55.592;37.460;2022-11-15T08:24:17;99447.41;;;0.33;57.74
58295;BME280;45705;55.592;37.460;2022-11-15T08:27:02;99438.56;;;0.21;58.27
58295;BME280;45705;55.592;37.460;2022-11-15T08:29:47;99437.53;;;0.22;58.02
58295;BME280;45705;55.592;37.460;2022-11-15T08:32:32;99429.63;;;0.39;57.76
58295;BME280;45705;55.592;37.460;2022-11-15T08:35:17;99423.34;;;0.10;58.00
58295;BME280;45705;55.592;37.460;2022-11-15T08:38:01;99426.94;;;0.27;58.49
58295;BME280;45705;55.592;37.460;2022-11-15T08:40:45;99406.59;;;0.26;58.21
58295;BME280;45705;55.592;37.460;2022-11-15T08:43:29;99404.50;;;0.28;57.55
58295;BME280;45705;55.592;37.460;2022-11-15T08:46:13;99422.19;;;0.29;57.87
58295;BME280;45705;55.592;37.460;2022-11-15T08:48:58;99418.63;;;0.52;57.37
58295;BME280;45705;55.592;37.460;2022-11-15T08:51:42;99414.91;;;0.53;57.23
58295;BME280;45705;55.592;37.460;2022-11-15T08:54:26;99421.56;;;-0.20;59.49
58295;BME280;45705;55.592;37.460;2022-11-15T08:57:11;99420.19;;;0.01;59.80
58295;BME280;45705;55.592;37.460;2022-11-15T08:59:55;99418.34;;;0.02;59.52
58295;BME280;45705;55.592;37.460;2022-11-15T09:02:40;99419.16;;;0.26;59.35
58295;BME280;45705;55.592;37.460;2022-11-15T09:05:24;99410.97;;;0.44;58.13
58295;BME280;45705;55.592;37.460;2022-11-15T09:08:08;99410.16;;;0.55;56.84
58295;BME280;45705;55.592;37.460;2022-11-15T09:10:53;99406.81;;;0.36;58.21
58295;BME280;45705;55.592;37.460;2022-11-15T09:13:37;99405.56;;;0.27;58.89
58295;BME280;45705;55.592;37.460;2022-11-15T09:16:21;99408.13;;;0.22;59.70
58295;BME280;45705;55.592;37.460;2022-11-15T09:19:06;99402.06;;;0.15;59.40
58295;BME280;45705;55.592;37.460;2022-11-15T09:21:50;99397.41;;;0.22;59.07
58295;BME280;45705;55.592;37.460;2022-11-15T09:24:35;99396.50;;;-0.19;60.29
58295;BME280;45705;55.592;37.460;2022-11-15T09:27:19;99383.84;;;0.00;60.29
58295;BME280;45705;55.592;37.460;2022-11-15T09:30:04;99381.81;;;0.19;59.84
58295;BME280;45705;55.592;37.460;2022-11-15T09:32:48;99387.63;;;0.39;59.47
58295;BME280;45705;55.592;37.460;2022-11-15T09:35:33;99377.97;;;0.27;58.98
58295;BME280;45705;55.592;37.460;2022-11-15T09:38:17;99386.03;;;0.15;59.62
58295;BME280;45705;55.592;37.460;2022-11-15T09:49:56;99363.25;;;0.01;61.40
58295;BME280;45705;55.592;37.460;2022-11-15T09:52:31;99367.31;;;0.03;60.98
58295;BME280;45705;55.592;37.460;2022-11-15T09:54:56;99361.34;;;0.25;61.41
58295;BME280;45705;55.592;37.460;2022-11-15T10:00:12;99354.19;;;0.02;60.52
58295;BME280;45705;55.592;37.460;2022-11-15T10:03:11;99358.03;;;-0.06;60.93
58295;BME280;45705;55.592;37.460;2022-11-15T10:05:40;99339.66;;;0.09;60.42
58295;BME280;45705;55.592;37.460;2022-11-15T10:11:13;99343.38;;;0.20;59.93
58295;BME280;45705;55.592;37.460;2022-11-15T10:13:41;99348.97;;;0.07;60.70
58295;BME280;45705;55.592;37.460;2022-11-15T10:24:26;99340.31;;;0.28;60.72
58295;BME280;45705;55.592;37.460;2022-11-15T10:26:56;99334.63;;;0.94;57.95
58295;BME280;45705;55.592;37.460;2022-11-15T10:29:24;99331.88;;;0.48;58.05
58295;BME280;45705;55.592;37.460;2022-11-15T10:31:50;99329.75;;;0.62;58.19
58295;BME280;45705;55.592;37.460;2022-11-15T10:34:19;99333.94;;;0.29;59.29
58295;BME280;45705;55.592;37.460;2022-11-15T10:36:45;99322.25;;;-0.17;60.85
58295;BME280;45705;55.592;37.460;2022-11-15T10:39:13;99319.59;;;-0.41;61.55
58295;BME280;45705;55.592;37.460;2022-11-15T10:41:41;99303.25;;;0.20;60.85
58295;BME280;45705;55.592;37.460;2022-11-15T10:44:30;99305.13;;;0.08;61.62
58295;BME280;45705;55.592;37.460;2022-11-15T10:49:30;99295.44;;;0.30;60.13
58295;BME280;45705;55.592;37.460;2022-11-15T10:52:00;99292.91;;;0.52;59.19
58295;BME280;45705;55.592;37.460;2022-11-15T10:54:27;99286.56;;;0.01;60.10
58295;BME280;45705;55.592;37.460;2022-11-15T10:57:06;99285.22;;;-0.25;61.37
58295;BME280;45705;55.592;37.460;2022-11-15T10:59:36;99280.66;;;-0.13;61.48
58295;BME280;45705;55.592;37.460;2022-11-15T11:04:51;99271.53;;;0.41;59.56
58295;BME280;45705;55.592;37.460;2022-11-15T11:07:28;99273.66;;;0.10;59.99
58295;BME280;45705;55.592;37.460;2022-11-15T11:10:21;99272.09;;;0.26;60.13
58295;BME280;45705;55.592;37.460;2022-11-15T11:12:47;99272.44;;;0.17;60.55
58295;BME280;45705;55.592;37.460;2022-11-15T11:15:15;99271.50;;;-0.29;62.55
58295;BME280;45705;55.592;37.460;2022-11-15T11:18:05;99266.53;;;0.04;61.38
58295;BME280;45705;55.592;37.460;2022-11-15T11:25:52;99265.53;;;0.33;59.90
58295;BME280;45705;55.592;37.460;2022-11-15T11:31:23;99266.91;;;-0.05;61.73
58295;BME280;45705;55.592;37.460;2022-11-15T11:34:17;99269.84;;;-0.18;63.76
58295;BME280;45705;55.592;37.460;2022-11-15T11:42:51;99265.94;;;-0.63;69.03
58295;BME280;45705;55.592;37.460;2022-11-15T11:53:57;99263.84;;;-0.72;78.85
58295;BME280;45705;55.592;37.460;2022-11-15T11:56:36;99257.69;;;-0.85;81.69
58295;BME280;45705;55.592;37.460;2022-11-15T12:01:41;99254.78;;;-0.95;88.60
58295;BME280;45705;55.592;37.460;2022-11-15T12:06:59;99244.34;;;-0.85;93.02
58295;BME280;45705;55.592;37.460;2022-11-15T12:09:41;99244.53;;;-1.22;95.71
58295;BME280;45705;55.592;37.460;2022-11-15T12:12:15;99239.38;;;-1.35;97.53
58295;BME280;45705;55.592;37.460;2022-11-15T12:14:51;99243.31;;;-1.37;98.48
58295;BME280;45705;55.592;37.460;2022-11-15T12:17:21;99229.34;;;-1.09;96.81
58295;BME280;45705;55.592;37.460;2022-11-15T12:19:48;99238.91;;;-1.32;97.85
58295;BME280;45705;55.592;37.460;2022-11-15T12:25:08;99226.28;;;-1.25;97.44
58295;BME280;45705;55.592;37.460;2022-11-15T12:31:06;99215.72;;;-1.43;99.38
58295;BME280;45705;55.592;37.460;2022-11-15T12:33:43;99220.13;;;-1.37;98.86
58295;BME280;45705;55.592;37.460;2022-11-15T12:36:39;99211.53;;;-1.39;98.43
58295;BME280;45705;55.592;37.460;2022-11-15T12:39:07;99212.16;;;-1.13;97.12
58295;BME280;45705;55.592;37.460;2022-11-15T12:41:36;99197.09;;;-1.62;100.00
58295;BME280;45705;55.592;37.460;2022-11-15T12:44:03;99196.50;;;-1.33;100.00
58295;BME280;45705;55.592;37.460;2022-11-15T12:49:08;99184.72;;;-1.86;100.00
58295;BME280;45705;55.592;37.460;2022-11-15T12:59:57;99181.47;;;-2.19;100.00
58295;BME280;45705;55.592;37.460;2022-11-15T13:02:43;99176.88;;;-1.81;100.00
58295;BME280;45705;55.592;37.460;2022-11-15T13:25:40;99164.31;;;-1.92;100.00
58295;BME280;45705;55.592;37.460;2022-11-15T13:30:55;99151.13;;;-1.87;100.00
58295;BME280;45705;55.592;37.460;2022-11-15T13:33:25;99146.72;;;-1.93;100.00
58295;BME280;45705;55.592;37.460;2022-11-15T13:36:02;99133.44;;;-1.82;100.00
58295;BME280;45705;55.592;37.460;2022-11-15T13:38:34;99135.63;;;-1.79;100.00
58295;BME280;45705;55.592;37.460;2022-11-15T13:41:21;99127.56;;;-2.02;100.00
58295;BME280;45705;55.592;37.460;2022-11-15T13:43:48;99138.59;;;-1.99;100.00
58295;BME280;45705;55.592;37.460;2022-11-15T13:49:09;99123.19;;;-1.96;100.00
58295;BME280;45705;55.592;37.460;2022-11-15T13:51:50;99106.88;;;-1.76;100.00
58295;BME280;45705;55.592;37.460;2022-11-15T13:54:42;99115.53;;;-1.39;100.00
58295;BME280;45705;55.592;37.460;2022-11-15T13:57:23;99115.56;;;-1.81;100.00
58295;BME280;45705;55.592;37.460;2022-11-15T14:03:05;99103.53;;;-1.84;100.00
58295;BME280;45705;55.592;37.460;2022-11-15T14:05:32;99107.94;;;-1.77;100.00
58295;BME280;45705;55.592;37.460;2022-11-15T14:10:32;99098.81;;;-2.12;100.00
58295;BME280;45705;55.592;37.460;2022-11-15T14:12:59;99100.09;;;-2.14;100.00
58295;BME280;45705;55.592;37.460;2022-11-15T14:17:57;99092.91;;;-1.72;100.00
58295;BME280;45705;55.592;37.460;2022-11-15T14:20:31;99092.75;;;-1.77;100.00
58295;BME280;45705;55.592;37.460;2022-11-15T14:23:00;99096.13;;;-1.70;100.00
58295;BME280;45705;55.592;37.460;2022-11-15T14:25:29;99102.19;;;-2.05;100.00
58295;BME280;45705;55.592;37.460;2022-11-15T14:28:16;99090.81;;;-2.12;100.00
58295;BME280;45705;55.592;37.460;2022-11-15T14:30:55;99086.34;;;-2.00;100.00
58295;BME280;45705;55.592;37.460;2022-11-15T14:33:34;99082.09;;;-1.77;100.00
58295;BME280;45705;55.592;37.460;2022-11-15T14:36:18;99080.69;;;-1.91;100.00
58295;BME280;45705;55.592;37.460;2022-11-15T14:38:45;99070.84;;;-1.79;100.00
58295;BME280;45705;55.592;37.460;2022-11-15T14:41:25;99080.28;;;-1.65;100.00
58295;BME280;45705;55.592;37.460;2022-11-15T14:43:52;99046.88;;;-1.79;100.00
58295;BME280;45705;55.592;37.460;2022-11-15T14:46:18;99069.81;;;-1.78;100.00
58295;BME280;45705;55.592;37.460;2022-11-15T14:48:44;99059.75;;;-1.76;100.00
58295;BME280;45705;55.592;37.460;2022-11-15T14:51:16;99053.56;;;-1.88;100.00
58295;BME280;45705;55.592;37.460;2022-11-15T14:53:43;99060.38;;;-2.04;100.00
58295;BME280;45705;55.592;37.460;2022-11-15T14:56:10;99055.06;;;-1.92;100.00
58295;BME280;45705;55.592;37.460;2022-11-15T14:58:36;99047.38;;;-2.24;100.00
58295;BME280;45705;55.592;37.460;2022-11-15T15:01:09;99059.25;;;-1.96;100.00
58295;BME280;45705;55.592;37.460;2022-11-15T15:03:37;99056.22;;;-1.88;100.00
58295;BME280;45705;55.592;37.460;2022-11-15T15:06:03;99046.16;;;-1.86;100.00
58295;BME280;45705;55.592;37.460;2022-11-15T15:08:29;99047.69;;;-1.79;100.00
58295;BME280;45705;55.592;37.460;2022-11-15T15:10:54;99042.44;;;-2.09;100.00
58295;BME280;45705;55.592;37.460;2022-11-15T15:13:22;99044.03;;;-2.08;100.00
58295;BME280;45705;55.592;37.460;2022-11-15T15:15:49;99043.63;;;-1.81;100.00
58295;BME280;45705;55.592;37.460;2022-11-15T15:18:16;99039.44;;;-1.77;100.00
58295;BME280;45705;55.592;37.460;2022-11-15T15:20:43;99043.13;;;-2.02;100.00
58295;BME280;45705;55.592;37.460;2022-11-15T15:23:15;99039.88;;;-2.04;100.00
58295;BME280;45705;55.592;37.460;2022-11-15T15:25:41;99034.34;;;-1.67;100.00
58295;BME280;45705;55.592;37.460;2022-11-15T15:28:09;99029.38;;;-1.87;100.00
58295;BME280;45705;55.592;37.460;2022-11-15T15:30:34;99027.53;;;-1.63;100.00
58295;BME280;45705;55.592;37.460;2022-11-15T15:33:00;99028.13;;;-1.61;100.00
58295;BME280;45705;55.592;37.460;2022-11-15T15:35:30;99031.94;;;-1.92;100.00
58295;BME280;45705;55.592;37.460;2022-11-15T15:37:57;99027.25;;;-1.96;100.00
58295;BME280;45705;55.592;37.460;2022-11-15T15:40:25;99007.47;;;-1.77;100.00
58295;BME280;45705;55.592;37.460;2022-11-15T15:42:52;99014.41;;;-2.00;100.00
58295;BME280;45705;55.592;37.460;2022-11-15T15:45:18;99001.69;;;-1.74;100.00
58295;BME280;45705;55.592;37.460;2022-11-15T15:47:45;99002.84;;;-1.93;100.00
58295;BME280;45705;55.592;37.460;2022-11-15T15:50:21;98999.25;;;-1.87;100.00
58295;BME280;45705;55.592;37.460;2022-11-15T15:52:48;98988.94;;;-1.72;100.00
58295;BME280;45705;55.592;37.460;2022-11-15T15:55:14;98988.94;;;-1.95;100.00
58295;BME280;45705;55.592;37.460;2022-11-15T15:57:40;98989.16;;;-1.85;100.00
58295;BME280;45705;55.592;37.460;2022-11-15T16:00:06;98988.47;;;-1.81;100.00
58295;BME280;45705;55.592;37.460;2022-11-15T16:02:38;98984.19;;;-1.82;100.00
58295;BME280;45705;55.592;37.460;2022-11-15T16:05:04;98987.31;;;-1.96;100.00
58295;BME280;45705;55.592;37.460;2022-11-15T16:07:30;98982.44;;;-2.00;100.00
58295;BME280;45705;55.592;37.460;2022-11-15T16:09:56;98972.94;;;-1.95;100.00
58295;BME280;45705;55.592;37.460;2022-11-15T16:12:34;98971.88;;;-2.06;100.00
58295;BME280;45705;55.592;37.460;2022-11-15T16:15:01;98972.69;;;-2.06;100.00
58295;BME280;45705;55.592;37.460;2022-11-15T16:17:32;98964.47;;;-1.92;100.00
58295;BME280;45705;55.592;37.460;2022-11-15T16:19:59;98967.84;;;-1.85;100.00